createdAt,value
2023-02-05T00:01:43.107Z,23.08
2023-02-05T00:04:10.998Z,34.95
2023-02-05T00:06:38.826Z,33.60
2023-02-05T00:09:06.300Z,34.75
2023-02-05T00:11:33.953Z,23.95
2023-02-05T00:14:01.403Z,30.40
2023-02-05T00:16:29.123Z,26.63
2023-02-05T00:18:57.104Z,32.10
2023-02-05T00:21:24.872Z,24.35
2023-02-05T00:23:53.894Z,30.95
2023-02-05T00:26:21.332Z,24.83
2023-02-05T00:28:48.844Z,30.00
2023-02-05T00:31:20.473Z,30.05
2023-02-05T00:33:49.045Z,31.35
2023-02-05T00:36:17.823Z,35.05
2023-02-05T00:38:45.684Z,28.42
2023-02-05T00:41:14.078Z,28.83
2023-02-05T00:43:42.393Z,25.25
2023-02-05T00:46:11.757Z,19.70
2023-02-05T00:48:39.979Z,21.23
2023-02-05T00:51:10.423Z,27.30
2023-02-05T00:53:38.182Z,27.05
2023-02-05T00:56:06.370Z,23.83
2023-02-05T00:58:34.537Z,23.15
2023-02-05T01:01:02.600Z,23.48
2023-02-05T01:03:30.361Z,21.33
2023-02-05T01:05:58.164Z,21.77
2023-02-05T01:08:25.625Z,19.52
2023-02-05T01:10:53.456Z,15.20
2023-02-05T01:13:20.918Z,20.83
2023-02-05T01:15:50.669Z,24.65
2023-02-05T01:18:18.538Z,19.67
2023-02-05T01:20:46.918Z,16.98
2023-02-05T01:23:14.329Z,19.27
2023-02-05T01:25:42.258Z,16.48
2023-02-05T01:28:09.865Z,16.88
2023-02-05T01:30:37.880Z,18.15
2023-02-05T01:33:05.536Z,19.48
2023-02-05T01:35:33.754Z,17.98
2023-02-05T01:38:01.311Z,20.33
2023-02-05T01:40:29.119Z,17.50
2023-02-05T01:42:56.806Z,26.15
2023-02-05T01:45:29.865Z,23.98
2023-02-05T01:48:02.272Z,20.90
2023-02-05T01:50:43.539Z,28.88
2023-02-05T01:53:18.892Z,23.40
2023-02-05T01:55:56.573Z,21.10
2023-02-05T01:58:26.861Z,21.15
2023-02-05T02:00:54.595Z,22.33
2023-02-05T02:03:27.638Z,20.10
2023-02-05T02:05:56.316Z,19.00
2023-02-05T02:08:25.133Z,20.65
2023-02-05T02:10:54.233Z,17.65
2023-02-05T02:13:22.604Z,20.77
2023-02-05T02:15:51.156Z,18.80
2023-02-05T02:18:31.612Z,22.05
2023-02-05T02:21:36.900Z,20.73
2023-02-05T02:24:14.278Z,24.45
2023-02-05T02:27:06.633Z,21.85
2023-02-05T02:29:52.979Z,22.63
2023-02-05T02:32:43.844Z,23.88
2023-02-05T02:35:23.112Z,20.80
2023-02-05T02:37:57.939Z,64.93
2023-02-05T02:40:35.473Z,34.08
2023-02-05T02:43:17.803Z,83.95
2023-02-05T02:45:53.706Z,27.23
2023-02-05T02:48:24.623Z,30.00
2023-02-05T02:50:54.028Z,24.17
2023-02-05T02:53:24.906Z,15.38
2023-02-05T02:55:52.677Z,22.98
2023-02-05T02:58:27.584Z,19.13
2023-02-05T03:00:55.683Z,18.25
2023-02-05T03:03:25.138Z,15.25
2023-02-05T03:05:53.432Z,13.73
2023-02-05T03:08:27.313Z,17.98
2023-02-05T03:11:02.486Z,17.90
2023-02-05T03:13:32.136Z,21.15
2023-02-05T03:16:02.708Z,28.92
2023-02-05T03:18:30.761Z,12.85
2023-02-05T03:21:02.120Z,14.13
2023-02-05T03:23:30.816Z,24.35
2023-02-05T03:25:58.438Z,17.48
2023-02-05T03:28:37.128Z,13.75
2023-02-05T03:31:27.158Z,16.25
2023-02-05T03:33:58.010Z,25.02
2023-02-05T03:36:48.646Z,21.92
2023-02-05T03:39:54.377Z,26.13
2023-02-05T03:42:43.922Z,20.02
2023-02-05T03:45:14.645Z,19.73
2023-02-05T03:48:24.497Z,26.80
2023-02-05T03:50:56.357Z,24.98
2023-02-05T03:53:37.438Z,21.10
2023-02-05T03:56:12.443Z,18.90
2023-02-05T03:58:52.695Z,21.00
2023-02-05T04:01:21.152Z,16.73
2023-02-05T04:03:48.722Z,17.05
2023-02-05T04:06:16.542Z,17.98
2023-02-05T04:08:45.778Z,13.80
2023-02-05T04:11:13.590Z,19.40
2023-02-05T04:13:42.632Z,20.75
2023-02-05T04:16:12.346Z,14.63
2023-02-05T04:18:40.117Z,19.75
2023-02-05T04:21:07.792Z,15.05
2023-02-05T04:23:40.879Z,14.18
2023-02-05T04:26:09.398Z,13.18
2023-02-05T04:28:43.972Z,15.50
2023-02-05T04:31:12.950Z,14.57
2023-02-05T04:33:42.062Z,46.25
2023-02-05T04:36:12.411Z,10.68
2023-02-05T04:38:40.112Z,33.75
2023-02-05T04:41:08.362Z,39.53
2023-02-05T04:43:35.695Z,31.05
2023-02-05T04:46:07.402Z,45.15
2023-02-05T04:48:35.454Z,38.38
2023-02-05T04:51:15.674Z,25.65
2023-02-05T04:53:43.133Z,27.05
2023-02-05T04:56:13.963Z,15.65
2023-02-05T04:58:41.999Z,17.48
2023-02-05T05:01:18.797Z,14.45
2023-02-05T05:03:46.514Z,16.27
2023-02-05T05:06:15.490Z,19.10
2023-02-05T05:08:43.143Z,17.58
2023-02-05T05:11:13.837Z,17.42
2023-02-05T05:13:41.600Z,15.57
2023-02-05T05:16:10.955Z,16.25
2023-02-05T05:18:39.150Z,13.02
2023-02-05T05:21:07.282Z,13.95
2023-02-05T05:23:36.380Z,15.52
2023-02-05T05:26:06.911Z,18.10
2023-02-05T05:28:35.092Z,16.75
2023-02-05T05:31:14.256Z,20.02
2023-02-05T05:33:42.037Z,17.88
2023-02-05T05:36:09.718Z,18.45
2023-02-05T05:38:37.639Z,17.90
2023-02-05T05:41:23.873Z,20.52
2023-02-05T05:43:54.848Z,20.63
2023-02-05T05:46:24.935Z,19.90
2023-02-05T05:48:57.816Z,28.75
2023-02-05T05:51:26.395Z,14.07
2023-02-05T05:53:54.668Z,19.92
2023-02-05T05:56:22.395Z,20.90
2023-02-05T05:58:50.894Z,21.60
2023-02-05T06:01:20.529Z,19.90
2023-02-05T06:03:48.196Z,20.15
2023-02-05T06:06:15.534Z,13.10
2023-02-05T06:08:43.277Z,15.00
2023-02-05T06:11:10.696Z,24.67
2023-02-05T06:13:38.306Z,42.08
2023-02-05T06:16:06.155Z,36.85
2023-02-05T06:18:34.103Z,36.17
2023-02-05T06:21:02.628Z,15.38
2023-02-05T06:23:30.360Z,14.75
2023-02-05T06:25:58.171Z,45.92
2023-02-05T06:28:25.749Z,26.45
2023-02-05T06:30:53.103Z,71.28
2023-02-05T06:33:20.888Z,53.58
2023-02-05T06:35:48.264Z,45.45
2023-02-05T06:38:16.049Z,37.95
2023-02-05T06:40:43.349Z,40.13
2023-02-05T06:43:11.151Z,31.27
2023-02-05T06:45:38.441Z,16.05
2023-02-05T06:48:06.224Z,47.17
2023-02-05T06:50:33.565Z,15.90
2023-02-05T06:53:01.111Z,53.53
2023-02-05T06:55:28.294Z,15.98
2023-02-05T06:57:55.873Z,54.55
2023-02-05T07:00:23.273Z,58.95
2023-02-05T07:02:50.907Z,62.30
2023-02-05T07:05:18.521Z,74.75
2023-02-05T07:07:46.934Z,24.98
2023-02-05T07:10:15.438Z,25.55
2023-02-05T07:12:43.055Z,18.23
2023-02-05T07:15:10.549Z,42.85
2023-02-05T07:17:39.528Z,55.28
2023-02-05T07:20:07.263Z,34.03
2023-02-05T07:22:34.794Z,59.47
2023-02-05T07:25:04.218Z,14.05
2023-02-05T07:27:32.215Z,31.80
2023-02-05T07:30:00.249Z,15.90
2023-02-05T07:32:27.882Z,42.67
2023-02-05T07:34:55.248Z,34.08
2023-02-05T07:37:22.865Z,32.00
2023-02-05T07:39:50.180Z,20.83
2023-02-05T07:42:17.821Z,14.55
2023-02-05T07:44:50.956Z,19.17
2023-02-05T07:47:18.622Z,45.42
2023-02-05T07:49:45.837Z,29.80
2023-02-05T07:52:13.569Z,45.53
2023-02-05T07:54:41.272Z,34.78
2023-02-05T07:57:08.876Z,22.67
2023-02-05T07:59:36.165Z,36.70
2023-02-05T08:02:03.960Z,17.02
2023-02-05T08:04:31.349Z,18.08
2023-02-05T08:06:59.009Z,27.30
2023-02-05T08:09:26.260Z,35.22
2023-02-05T08:11:54.141Z,20.98
2023-02-05T08:14:21.473Z,19.48
2023-02-05T08:16:49.271Z,22.27
2023-02-05T08:19:18.047Z,31.20
2023-02-05T08:21:45.749Z,16.02
2023-02-05T08:24:13.057Z,19.80
2023-02-05T08:26:40.680Z,18.48
2023-02-05T08:29:08.523Z,25.08
2023-02-05T08:31:36.517Z,27.35
2023-02-05T08:34:04.596Z,19.65
2023-02-05T08:36:32.195Z,18.17
2023-02-05T08:38:59.497Z,27.50
2023-02-05T08:41:28.185Z,17.20
2023-02-05T08:43:55.772Z,20.55
2023-02-05T08:46:33.889Z,16.65
2023-02-05T08:49:11.229Z,19.83
2023-02-05T08:51:38.904Z,19.10
2023-02-05T08:54:09.334Z,33.90
2023-02-05T08:56:36.980Z,22.48
2023-02-05T08:59:04.294Z,54.53
2023-02-05T09:01:32.058Z,18.08
2023-02-05T09:03:59.483Z,22.65
2023-02-05T09:06:27.442Z,19.40
2023-02-05T09:08:54.851Z,32.40
2023-02-05T09:11:24.087Z,75.80
2023-02-05T09:13:51.361Z,21.00
2023-02-05T09:16:19.001Z,60.13
2023-02-05T09:18:46.331Z,10.55
2023-02-05T09:21:14.309Z,35.40
2023-02-05T09:23:41.734Z,52.10
2023-02-05T09:26:09.526Z,14.93
2023-02-05T09:28:37.187Z,13.70
2023-02-05T09:31:10.658Z,9.50
2023-02-05T09:33:38.429Z,10.30
2023-02-05T09:36:20.400Z,13.18
2023-02-05T09:38:48.089Z,46.00
2023-02-05T09:41:18.611Z,13.70
2023-02-05T09:44:10.256Z,15.88
2023-02-05T09:46:59.414Z,15.13
2023-02-05T09:49:29.286Z,14.60
2023-02-05T09:52:03.659Z,11.88
2023-02-05T09:54:40.887Z,11.88
2023-02-05T09:57:15.672Z,11.07
2023-02-05T09:59:46.162Z,10.90
2023-02-05T10:02:23.512Z,12.40
2023-02-05T10:04:52.864Z,11.48
2023-02-05T10:07:35.998Z,9.95
2023-02-05T10:10:11.646Z,9.18
2023-02-05T10:13:04.116Z,8.15
2023-02-05T10:15:37.704Z,12.35
2023-02-05T10:18:14.260Z,8.43
2023-02-05T10:21:03.209Z,11.30
2023-02-05T10:23:47.260Z,10.77
2023-02-05T10:26:15.714Z,11.35
2023-02-05T10:29:03.757Z,11.98
2023-02-05T10:31:40.903Z,10.57
2023-02-05T10:34:22.630Z,25.33
2023-02-05T10:36:52.582Z,35.35
2023-02-05T10:39:23.232Z,23.05
2023-02-05T10:41:52.943Z,20.23
2023-02-05T10:44:36.843Z,29.75
2023-02-05T10:47:12.815Z,17.75
2023-02-05T10:49:50.095Z,12.57
2023-02-05T10:52:17.817Z,19.73
2023-02-05T10:54:46.177Z,20.27
2023-02-05T10:57:16.324Z,9.27
2023-02-05T10:59:59.348Z,9.10
2023-02-05T11:02:34.113Z,11.82
2023-02-05T11:05:07.080Z,12.43
2023-02-05T11:07:41.795Z,24.40
2023-02-05T11:10:16.950Z,11.00
2023-02-05T11:12:46.371Z,8.93
2023-02-05T11:15:26.193Z,8.77
2023-02-05T11:18:00.844Z,15.07
2023-02-05T11:20:39.247Z,9.95
2023-02-05T11:23:21.803Z,24.45
2023-02-05T11:25:56.828Z,9.88
2023-02-05T11:28:33.881Z,13.88
2023-02-05T11:31:26.307Z,15.98
2023-02-05T11:34:16.190Z,14.02
2023-02-05T11:36:52.792Z,24.48
2023-02-05T11:39:39.830Z,20.05
2023-02-05T11:42:27.797Z,10.05
2023-02-05T11:44:57.299Z,9.63
2023-02-05T11:47:34.814Z,25.52
2023-02-05T11:50:04.897Z,9.32
2023-02-05T11:52:36.703Z,8.35
2023-02-05T11:55:05.046Z,7.65
2023-02-05T11:57:35.699Z,7.35
2023-02-05T12:00:09.356Z,9.75
2023-02-05T12:02:38.775Z,9.23
2023-02-05T12:05:24.173Z,11.25
2023-02-05T12:08:10.267Z,14.40
2023-02-05T12:10:41.027Z,12.52
2023-02-05T12:13:18.932Z,15.35
2023-02-05T12:15:58.465Z,11.18
2023-02-05T12:18:41.060Z,7.35
2023-02-05T12:21:16.716Z,9.17
2023-02-05T12:24:03.036Z,10.77
2023-02-05T12:26:35.294Z,12.30
2023-02-05T12:29:28.982Z,12.00
2023-02-05T12:32:15.018Z,12.00
2023-02-05T12:35:01.605Z,14.48
2023-02-05T12:37:40.980Z,11.63
2023-02-05T12:40:43.424Z,7.85
2023-02-05T12:43:25.761Z,8.23
2023-02-05T12:46:05.800Z,7.80
2023-02-05T12:48:52.739Z,7.18
2023-02-05T12:51:42.951Z,8.10
2023-02-05T12:54:16.321Z,7.45
2023-02-05T12:56:54.824Z,11.10
2023-02-05T12:59:32.074Z,8.30
2023-02-05T13:02:05.329Z,12.77
2023-02-05T13:07:13.385Z,13.75
2023-02-05T13:09:44.105Z,4.05
2023-02-05T13:12:18.462Z,26.73
2023-02-05T13:15:05.577Z,20.48
2023-02-05T13:17:40.896Z,6.68
2023-02-05T13:20:20.487Z,17.67
2023-02-05T13:23:14.295Z,15.27
2023-02-05T13:26:05.188Z,13.40
2023-02-05T13:28:42.782Z,6.88
2023-02-05T13:31:40.406Z,8.13
2023-02-05T13:34:10.097Z,9.00
2023-02-05T13:36:40.510Z,7.65
2023-02-05T13:39:38.993Z,10.65
2023-02-05T13:42:21.949Z,7.70
2023-02-05T13:45:12.707Z,12.07
2023-02-05T13:48:06.078Z,12.75
2023-02-05T13:50:33.769Z,10.77
2023-02-05T13:53:20.310Z,10.23
2023-02-05T13:56:19.568Z,8.77
2023-02-05T13:58:53.321Z,12.35
2023-02-05T14:01:24.968Z,11.82
2023-02-05T14:03:58.839Z,10.73
2023-02-05T14:06:32.824Z,8.82
2023-02-05T14:09:17.649Z,13.52
2023-02-05T14:11:55.993Z,16.40
2023-02-05T14:14:28.300Z,19.05
2023-02-05T14:19:26.983Z,116.90
2023-02-05T14:21:59.201Z,12.27
2023-02-05T14:24:26.363Z,86.93
2023-02-05T14:27:00.707Z,24.15
2023-02-05T14:29:48.290Z,18.20
2023-02-05T14:32:28.117Z,14.75
2023-02-05T14:35:02.236Z,27.02
2023-02-05T14:37:34.106Z,11.00
2023-02-05T14:40:22.973Z,9.68
2023-02-05T14:42:57.062Z,12.95
2023-02-05T14:45:29.864Z,15.07
2023-02-05T14:47:58.071Z,9.82
2023-02-05T14:50:29.626Z,13.40
2023-02-05T14:53:03.352Z,14.18
2023-02-05T14:55:37.994Z,8.93
2023-02-05T14:58:10.860Z,10.57
2023-02-05T15:00:42.002Z,12.50
2023-02-05T15:03:17.944Z,10.68
2023-02-05T15:05:45.544Z,10.95
2023-02-05T15:08:34.908Z,9.70
2023-02-05T15:11:06.162Z,8.25
2023-02-05T15:13:34.106Z,10.32
2023-02-05T15:16:14.930Z,8.15
2023-02-05T15:18:53.539Z,9.30
2023-02-05T15:21:28.062Z,10.35
2023-02-05T15:24:06.675Z,8.50
2023-02-05T15:26:45.425Z,11.07
2023-02-05T15:29:17.838Z,12.73
2023-02-05T15:31:50.619Z,16.42
2023-02-05T15:34:29.122Z,13.77
2023-02-05T15:37:05.575Z,18.20
2023-02-05T15:40:11.724Z,13.18
2023-02-05T15:42:42.332Z,20.52
2023-02-05T15:45:34.013Z,14.00
2023-02-05T15:48:14.036Z,34.30
2023-02-05T15:50:48.016Z,23.67
2023-02-05T15:53:37.225Z,23.33
2023-02-05T15:56:19.877Z,17.67
2023-02-05T15:59:10.573Z,24.02
2023-02-05T16:01:42.103Z,11.95
2023-02-05T16:04:31.195Z,15.23
2023-02-05T16:06:59.876Z,35.10
2023-02-05T16:09:29.529Z,26.33
2023-02-05T16:11:57.750Z,21.98
2023-02-05T16:14:26.700Z,29.45
2023-02-05T16:16:54.456Z,23.83
2023-02-05T16:19:25.394Z,22.23
2023-02-05T16:21:59.518Z,21.13
2023-02-05T16:24:36.533Z,23.85
2023-02-05T16:27:16.458Z,22.98
2023-02-05T16:29:48.977Z,25.73
2023-02-05T16:34:56.662Z,44.50
2023-02-05T16:37:28.793Z,26.00
2023-02-05T16:39:57.614Z,32.88
2023-02-05T16:42:39.087Z,27.52
2023-02-05T16:45:22.988Z,42.85
2023-02-05T16:48:22.848Z,31.90
2023-02-05T16:50:50.984Z,30.67
2023-02-05T16:53:28.701Z,27.13
2023-02-05T16:55:59.397Z,41.85
2023-02-05T16:58:31.090Z,43.00
2023-02-05T17:01:00.556Z,38.05
2023-02-05T17:03:34.657Z,42.80
2023-02-05T17:06:03.961Z,50.58
2023-02-05T17:08:37.092Z,42.47
2023-02-05T17:11:06.764Z,38.58
2023-02-05T17:13:40.806Z,40.33
2023-02-05T17:16:31.012Z,37.70
2023-02-05T17:19:06.656Z,40.38
2023-02-05T17:21:37.704Z,46.85
2023-02-05T17:24:09.409Z,55.08
2023-02-05T17:26:40.987Z,47.45
2023-02-05T17:29:15.312Z,46.30
2023-02-05T17:31:43.161Z,49.80
2023-02-05T17:34:11.908Z,43.72
2023-02-05T17:36:39.559Z,43.22
2023-02-05T17:39:07.212Z,41.03
2023-02-05T17:41:55.892Z,49.40
2023-02-05T17:44:23.824Z,45.38
2023-02-05T17:46:51.126Z,42.65
2023-02-05T17:49:18.896Z,46.83
2023-02-05T17:51:46.345Z,69.13
2023-02-05T17:54:19.649Z,62.75
2023-02-05T17:59:21.515Z,49.78
2023-02-05T18:01:49.733Z,58.58
2023-02-05T18:04:18.842Z,63.13
2023-02-05T18:06:48.728Z,55.95
2023-02-05T18:09:16.800Z,71.22
2023-02-05T18:11:44.219Z,61.70
2023-02-05T18:14:12.744Z,61.65
2023-02-05T18:16:40.472Z,60.35
2023-02-05T18:19:08.429Z,76.32
2023-02-05T18:21:36.204Z,66.43
2023-02-05T18:24:04.557Z,68.75
2023-02-05T18:26:32.287Z,68.57
2023-02-05T18:28:59.964Z,71.13
2023-02-05T18:31:27.319Z,69.78
2023-02-05T18:33:55.080Z,68.22
2023-02-05T18:36:22.628Z,73.25
2023-02-05T18:38:50.442Z,70.60
2023-02-05T18:41:21.849Z,63.28
2023-02-05T18:43:49.465Z,69.50
2023-02-05T18:46:18.094Z,73.72
2023-02-05T18:48:45.854Z,67.30
2023-02-05T18:51:14.783Z,72.60
2023-02-05T18:53:47.244Z,69.00
2023-02-05T18:56:25.725Z,72.27
2023-02-05T18:59:06.227Z,81.18
2023-02-05T19:01:35.842Z,86.38
2023-02-05T19:04:05.683Z,81.85
2023-02-05T19:06:33.795Z,90.40
2023-02-05T19:09:01.978Z,82.88
2023-02-05T19:11:30.435Z,90.38
2023-02-05T19:14:08.923Z,100.03
2023-02-05T19:16:36.998Z,92.40
2023-02-05T19:19:05.091Z,89.80
2023-02-05T19:21:33.392Z,84.10
2023-02-05T19:24:05.721Z,88.57
2023-02-05T19:26:34.902Z,74.90
2023-02-05T19:29:05.772Z,80.25
2023-02-05T19:31:35.418Z,69.07
2023-02-05T19:34:03.348Z,84.50
2023-02-05T19:36:30.760Z,79.88
2023-02-05T19:39:01.323Z,77.72
2023-02-05T19:41:30.379Z,73.82
2023-02-05T19:43:59.604Z,80.50
2023-02-05T19:46:29.460Z,71.90
2023-02-05T19:49:01.402Z,75.90
2023-02-05T19:51:29.250Z,79.85
2023-02-05T19:53:58.504Z,75.72
2023-02-05T19:56:26.585Z,86.15
2023-02-05T19:58:55.909Z,86.78
2023-02-05T20:01:28.528Z,85.40
2023-02-05T20:03:58.887Z,81.72
2023-02-05T20:06:28.714Z,95.40
2023-02-05T20:08:57.039Z,83.63
2023-02-05T20:11:24.463Z,89.90
2023-02-05T20:13:53.876Z,100.30
2023-02-05T20:16:23.128Z,98.13
2023-02-05T20:18:56.166Z,97.95
2023-02-05T20:21:24.240Z,111.60
2023-02-05T20:23:51.938Z,106.65
2023-02-05T20:26:22.492Z,87.80
2023-02-05T20:29:12.456Z,96.22
2023-02-05T20:31:43.637Z,97.70
2023-02-05T20:34:39.725Z,94.80
2023-02-05T20:37:09.564Z,98.85
2023-02-05T20:39:42.108Z,93.60
2023-02-05T20:42:14.433Z,103.45
2023-02-05T20:47:14.200Z,91.25
2023-02-05T20:49:42.974Z,92.13
2023-02-05T20:52:10.911Z,95.10
2023-02-05T20:54:38.762Z,94.32
2023-02-05T20:57:06.277Z,91.07
2023-02-05T20:59:34.805Z,105.53
2023-02-05T21:02:02.968Z,88.75
2023-02-05T21:04:31.182Z,86.22
2023-02-05T21:06:58.890Z,88.78
2023-02-05T21:09:26.897Z,91.72
2023-02-05T21:11:57.238Z,101.78
2023-02-05T21:14:24.891Z,95.65
2023-02-05T21:16:52.306Z,97.55
2023-02-05T21:19:20.212Z,94.68
2023-02-05T21:21:49.923Z,108.68
2023-02-05T21:24:18.059Z,111.28
2023-02-05T21:26:47.648Z,106.43
2023-02-05T21:29:17.738Z,112.22
2023-02-05T21:31:50.218Z,107.20
2023-02-05T21:34:25.284Z,110.90
2023-02-05T21:36:54.203Z,100.00
2023-02-05T21:39:22.921Z,114.93
2023-02-05T21:41:51.010Z,114.65
2023-02-05T21:44:19.017Z,118.97
2023-02-05T21:46:46.721Z,109.45
2023-02-05T21:49:14.875Z,121.07
2023-02-05T21:51:42.634Z,107.97
2023-02-05T21:54:11.151Z,118.30
2023-02-05T21:56:41.443Z,113.03
2023-02-05T21:59:11.134Z,108.78
2023-02-05T22:01:39.317Z,104.20
2023-02-05T22:04:11.663Z,111.50
2023-02-05T22:06:39.663Z,106.20
2023-02-05T22:09:09.675Z,133.55
2023-02-05T22:11:39.517Z,126.28
2023-02-05T22:14:07.710Z,119.72
2023-02-05T22:16:36.276Z,101.30
2023-02-05T22:19:05.023Z,123.70
2023-02-05T22:21:35.775Z,120.65
2023-02-05T22:24:04.255Z,112.75
2023-02-05T22:26:37.173Z,126.57
2023-02-05T22:29:07.218Z,131.70
2023-02-05T22:31:35.548Z,126.82
2023-02-05T22:34:04.933Z,130.32
2023-02-05T22:36:34.475Z,129.70
2023-02-05T22:39:03.293Z,143.05
2023-02-05T22:41:35.623Z,121.38
2023-02-05T22:44:04.692Z,129.82
2023-02-05T22:46:34.764Z,128.95
2023-02-05T22:49:03.652Z,135.98
2023-02-05T22:51:33.271Z,126.90
2023-02-05T22:54:01.686Z,130.45
2023-02-05T22:56:29.189Z,127.28
2023-02-05T22:58:57.085Z,139.18
2023-02-05T23:01:26.509Z,126.82
2023-02-05T23:03:55.234Z,120.72
2023-02-05T23:06:24.359Z,119.03
2023-02-05T23:08:57.703Z,115.47
2023-02-05T23:11:26.531Z,122.10
2023-02-05T23:13:54.594Z,122.65
2023-02-05T23:16:24.538Z,128.65
2023-02-05T23:18:53.154Z,116.00
2023-02-05T23:21:24.069Z,116.70
2023-02-05T23:23:51.746Z,106.70
2023-02-05T23:26:24.505Z,120.20
2023-02-05T23:28:53.694Z,119.45
2023-02-05T23:31:22.202Z,125.13
2023-02-05T23:33:50.366Z,128.82
2023-02-05T23:36:17.836Z,132.13
2023-02-05T23:38:45.904Z,123.85
2023-02-05T23:41:14.563Z,117.88
2023-02-05T23:43:42.190Z,123.70
2023-02-05T23:46:09.629Z,124.32
2023-02-05T23:48:37.339Z,115.45
2023-02-05T23:51:04.618Z,121.05
2023-02-05T23:53:32.425Z,111.05
2023-02-05T23:55:59.693Z,114.45
2023-02-05T23:58:28.019Z,104.47
